Baltic Frost — 9HA2868 — position and weather

sailwx.info

Track history (hours):
 
Tides and Currents Weather Stations Pressure Air Temp Water Temp Dewpoint Dewpoint Depression Visibility Wind Speed Wind Dir Waves Ship Positions

Baltic Frost

Last reported at 2015-May-28 23:31 UTC. Time now 2015-May-28 23:59 UTC.
Position N 52°21' E 002°51'.

Length 182 m; draft 9.3 m.

Type: Ship. MMSI: 256495000.

Date/timePositionNaut miles runAvg speedWind from/ knotsBaromVisibWave heightAir tempDewpointWater temp
2015-May-28 23:31N 52°21' E 002°51'3214.4
2015-May-28 21:16N 51°50' E 002°40'1014.2
2015-May-28 20:33N 51°41' E 002°31'1414.2
2015-May-28 19:33N 51°30' E 002°17'1313.3
2015-May-28 18:33N 51°18' E 002°08'1212.3
2015-May-28 17:34N 51°10' E 001°54'1212.1
2015-May-28 16:34N 51°02' E 001°39'1311.3
2015-May-28 15:27N 50°52' E 001°26'1011.7
2015-May-28 14:33N 50°42' E 001°22'19013.6
2015-May-28 00:33N 49°40' W 003°20'4213.8
2015-May-27 21:31N 49°19' W 004°15'61112.2
2015-May-25 19:16N 39°58' W 009°57'912.9
2015-May-25 18:33N 39°49' W 009°57'1312.8
2015-May-25 17:33N 39°36' W 009°57'1312.8
2015-May-25 16:33N 39°24' W 009°54'1312.7
2015-May-25 15:33N 39°11' W 009°56'1312.7
2015-May-25 14:33N 38°58' W 009°57'1312.6
2015-May-25 13:33N 38°46' W 009°57'1313.0
2015-May-25 12:33N 38°33' W 009°52'1312.9
2015-May-25 11:33N 38°21' W 009°47'1313.1
2015-May-25 10:33N 38°08' W 009°45'1312.9
2015-May-25 09:33N 37°56' W 009°43'1313.2
2015-May-25 08:33N 37°43' W 009°39'1313.0
2015-May-25 07:33N 37°30' W 009°36'1312.8
2015-May-25 06:32N 37°17' W 009°32'1312.8
2015-May-25 05:33N 37°05' W 009°29'1312.9
2015-May-25 04:33N 36°52' W 009°25'1313.4
2015-May-25 03:33N 36°42' W 009°14'1313.1
2015-May-25 02:33N 36°37' W 008°59'1413.7
2015-May-25 01:33N 36°34' W 008°42'1413.6
2015-May-25 00:33N 36°30' W 008°26'1313.3
2015-May-24 23:33N 36°26' W 008°10'1313.4
2015-May-24 22:33N 36°22' W 007°55'11513.6
2015-May-24 14:08N 35°58' W 005°36'712.6
2015-May-24 13:33N 35°60' W 005°27'1313.0
2015-May-24 12:33N 36°02' W 005°11'12513.6
2015-May-24 03:22N 36°21' W 002°39'9313.6
2015-May-23 20:32N 36°46' W 000°47'3213.8
2015-May-23 18:14N 36°55' W 000°09'1014.2
2015-May-23 17:33N 36°58' E 000°03'1914.2
2015-May-23 16:13N 37°04' E 000°25'60512.4
2015-May-21 15:27N 36°48' E 013°03'1112.4
2015-May-21 14:33N 36°45' E 013°16'1212.5
2015-May-21 13:33N 36°41' E 013°31'4 3.5
2015-May-21 12:33N 36°39' E 013°35'4 3.5
2015-May-21 11:33N 36°38' E 013°39'1312.6
2015-May-21 10:33N 36°35' E 013°54'1313.1
2015-May-21 09:33N 36°31' E 014°09'1413.6
2015-May-21 08:33N 36°26' E 014°25'1313.2
2015-May-21 07:33N 36°25' E 014°42'1413.6
2015-May-21 06:33N 36°27' E 014°58'1313.0
2015-May-21 05:33N 36°32' E 015°13'1413.7
2015-May-21 04:33N 36°43' E 015°24'1413.8
2015-May-21 03:33N 36°53' E 015°35'1313.4
2015-May-21 02:33N 37°04' E 015°46'1413.5
2015-May-21 01:33N 37°14' E 015°57'1313.4
2015-May-21 00:33N 37°25' E 016°07'1313.2
2015-May-20 23:33N 37°35' E 016°18'1313.1
2015-May-20 22:33N 37°45' E 016°29'1312.9
2015-May-20 21:33N 37°55' E 016°39'1313.3
2015-May-20 20:33N 38°05' E 016°50'1313.3
2015-May-20 19:33N 38°16' E 017°00'2013.5
2015-May-20 18:05N 38°31' E 017°16'813.0
2015-May-20 17:27N 38°37' E 017°23'1112.9
2015-May-20 16:33N 38°46' E 017°33'4513.4
2015-May-20 13:13N 39°21' E 018°09'913.6
2015-May-20 12:33N 39°27' E 018°17'1313.4
2015-May-20 11:33N 39°38' E 018°27'1313.1
2015-May-20 10:33N 39°48' E 018°38'1413.2
2015-May-20 09:29N 39°59' E 018°49'1313.7
2015-May-20 08:33N 40°12' E 018°50'  
Track history (hours):
 
Tides and Currents Weather Stations Pressure Air Temp Water Temp Dewpoint Dewpoint Depression Visibility Wind Speed Wind Dir Waves Ship Positions

Baltic Frost

Last reported at 2015-May-28 23:31 UTC. Time now 2015-May-28 23:59 UTC.
Position N 52°21' E 002°51'.

Length 182 m; draft 9.3 m.

Type: Ship. MMSI: 256495000.

Date/timePositionNaut miles runAvg speedWind from/ knotsBaromVisibWave heightAir tempDewpointWater temp
2015-May-28 23:31N 52°21' E 002°51'3214.4
2015-May-28 21:16N 51°50' E 002°40'1014.2
2015-May-28 20:33N 51°41' E 002°31'1414.2
2015-May-28 19:33N 51°30' E 002°17'1313.3
2015-May-28 18:33N 51°18' E 002°08'1212.3
2015-May-28 17:34N 51°10' E 001°54'1212.1
2015-May-28 16:34N 51°02' E 001°39'1311.3
2015-May-28 15:27N 50°52' E 001°26'1011.7
2015-May-28 14:33N 50°42' E 001°22'19013.6
2015-May-28 00:33N 49°40' W 003°20'4213.8
2015-May-27 21:31N 49°19' W 004°15'61112.2
2015-May-25 19:16N 39°58' W 009°57'912.9
2015-May-25 18:33N 39°49' W 009°57'1312.8
2015-May-25 17:33N 39°36' W 009°57'1312.8
2015-May-25 16:33N 39°24' W 009°54'1312.7
2015-May-25 15:33N 39°11' W 009°56'1312.7
2015-May-25 14:33N 38°58' W 009°57'1312.6
2015-May-25 13:33N 38°46' W 009°57'1313.0
2015-May-25 12:33N 38°33' W 009°52'1312.9
2015-May-25 11:33N 38°21' W 009°47'1313.1
2015-May-25 10:33N 38°08' W 009°45'1312.9
2015-May-25 09:33N 37°56' W 009°43'1313.2
2015-May-25 08:33N 37°43' W 009°39'1313.0
2015-May-25 07:33N 37°30' W 009°36'1312.8
2015-May-25 06:32N 37°17' W 009°32'1312.8
2015-May-25 05:33N 37°05' W 009°29'1312.9
2015-May-25 04:33N 36°52' W 009°25'1313.4
2015-May-25 03:33N 36°42' W 009°14'1313.1
2015-May-25 02:33N 36°37' W 008°59'1413.7
2015-May-25 01:33N 36°34' W 008°42'1413.6
2015-May-25 00:33N 36°30' W 008°26'1313.3
2015-May-24 23:33N 36°26' W 008°10'1313.4
2015-May-24 22:33N 36°22' W 007°55'11513.6
2015-May-24 14:08N 35°58' W 005°36'712.6
2015-May-24 13:33N 35°60' W 005°27'1313.0
2015-May-24 12:33N 36°02' W 005°11'12513.6
2015-May-24 03:22N 36°21' W 002°39'9313.6
2015-May-23 20:32N 36°46' W 000°47'3213.8
2015-May-23 18:14N 36°55' W 000°09'1014.2
2015-May-23 17:33N 36°58' E 000°03'1914.2
2015-May-23 16:13N 37°04' E 000°25'60512.4
2015-May-21 15:27N 36°48' E 013°03'1112.4
2015-May-21 14:33N 36°45' E 013°16'1212.5
2015-May-21 13:33N 36°41' E 013°31'4 3.5
2015-May-21 12:33N 36°39' E 013°35'4 3.5
2015-May-21 11:33N 36°38' E 013°39'1312.6
2015-May-21 10:33N 36°35' E 013°54'1313.1
2015-May-21 09:33N 36°31' E 014°09'1413.6
2015-May-21 08:33N 36°26' E 014°25'1313.2
2015-May-21 07:33N 36°25' E 014°42'1413.6
2015-May-21 06:33N 36°27' E 014°58'1313.0
2015-May-21 05:33N 36°32' E 015°13'1413.7
2015-May-21 04:33N 36°43' E 015°24'1413.8
2015-May-21 03:33N 36°53' E 015°35'1313.4
2015-May-21 02:33N 37°04' E 015°46'1413.5
2015-May-21 01:33N 37°14' E 015°57'1313.4
2015-May-21 00:33N 37°25' E 016°07'1313.2
2015-May-20 23:33N 37°35' E 016°18'1313.1
2015-May-20 22:33N 37°45' E 016°29'1312.9
2015-May-20 21:33N 37°55' E 016°39'1313.3
2015-May-20 20:33N 38°05' E 016°50'1313.3
2015-May-20 19:33N 38°16' E 017°00'2013.5
2015-May-20 18:05N 38°31' E 017°16'813.0
2015-May-20 17:27N 38°37' E 017°23'1112.9
2015-May-20 16:33N 38°46' E 017°33'4513.4
2015-May-20 13:13N 39°21' E 018°09'913.6
2015-May-20 12:33N 39°27' E 018°17'1313.4
2015-May-20 11:33N 39°38' E 018°27'1313.1
2015-May-20 10:33N 39°48' E 018°38'1413.2
2015-May-20 09:29N 39°59' E 018°49'1313.7
2015-May-20 08:33N 40°12' E 018°50'  

Dump ship's entire track history